Thursday, October 23, 2014, 5:20 AM EDT

KTHV, York Airport

Location: Spring Grove, PA, United States Lat: 39.917
Local Time: 5:20 AM EDT ( 9:20 GMT) Lon: -76.883
Time Zone: US/Eastern Elev: 478 ft

Show me the last for .
Show Decoded

2014-10-23 04:53 METAR KTHV 230853Z AUTO 33012KT 10SM OVC028 11/06 A2987 RMK AO2 RAB06E07 SLP117
                 P0000 60000 T01110061 56006 =
2014-10-23 03:53 METAR KTHV 230753Z AUTO 33010G16KT 10SM OVC027 11/06 A2987 RMK AO2 SLP118
                 T01110061 =
2014-10-23 02:53 METAR KTHV 230653Z AUTO 32009G17KT 10SM OVC028 11/06 A2988 RMK AO2 RAB00E11
                 SLP119 P0000 T01110061 =
2014-10-23 01:53 METAR KTHV 230553Z AUTO 32012KT 10SM OVC026 11/06 A2989 RMK AO2 SLP124 60000
                 T01060061 10117 20106 56019 =
2014-10-23 00:53 METAR KTHV 230453Z AUTO 32012G16KT 10SM OVC026 11/06 A2991 RMK AO2 SLP132
                 T01060061 401280106 =
2014-10-22 23:53 METAR KTHV 230353Z AUTO 31011G20KT 10SM OVC028 11/06 A2992 RMK AO2 SLP135
                 T01060061 =
2014-10-22 22:53 METAR KTHV 230253Z AUTO 32011G17KT 10SM BKN029 OVC050 11/06 A2994 RMK AO2 SLP142
                 60000 T01110061 58004 =
2014-10-22 22:17 METAR KTHV 230217Z AUTO 32010G17KT 10SM OVC029 11/06 A2995 RMK AO2 T01110061 =
2014-10-22 21:53 METAR KTHV 230153Z AUTO 33010KT 10SM OVC031 11/06 A2995 RMK AO2 RAB24E34 SLP144
                 P0000 T01110061 =
2014-10-22 20:53 METAR KTHV 230053Z AUTO 34010G17KT 10SM SCT030 BKN036 OVC060 12/06 A2997 RMK AO2
                 SLP150 T01170061 =
2014-10-22 20:46 METAR KTHV 230046Z AUTO 33010G19KT 10SM SCT029 BKN036 OVC060 12/06 A2997 RMK AO2
                 T01170061 =
2014-10-22 19:53 METAR KTHV 222353Z AUTO 34009KT 10SM OVC028 12/07 A2996 RMK AO2 SLP147 60000
                 T01170067 10128 20117 51003 =
2014-10-22 18:53 METAR KTHV 222253Z AUTO 34012G16KT 10SM OVC027 12/07 A2996 RMK AO2 SLP147
                 T01220067 =
2014-10-22 17:53 METAR KTHV 222153Z AUTO 36010G18KT 10SM OVC029 12/07 A2995 RMK AO2 SLP145
                 T01220072 =
2014-10-22 16:53 METAR KTHV 222053Z AUTO 35010G18KT 10SM OVC026 12/07 A2995 RMK AO2 SLP144 60000
                 T01220072 55001 =
2014-10-22 16:09 METAR KTHV 222009Z AUTO 34011G19KT 10SM BKN025 OVC037 13/08 A2995 RMK AO2
                 T01280078 =
2014-10-22 14:53 METAR KTHV 221853Z AUTO 33012G21KT 10SM BKN019 OVC032 12/08 A2995 RMK AO2 RAE07
                 SLP144 P0000 T01220083 =
2014-10-22 13:53 METAR KTHV 221753Z AUTO 34012G18KT 10SM -RA BKN016 OVC032 12/09 A2995 RMK AO2
                 SLP144 P0001 60006 T01170094 10128 20117 58003 =
2014-10-22 12:53 METAR KTHV 221653Z AUTO 34012G21KT 10SM -RA FEW015 OVC025 12/09 A2996 RMK AO2
                 SLP150 P0001 T01170094 =
2014-10-22 11:53 METAR KTHV 221553Z AUTO 34011G19KT 10SM -RA FEW018 OVC026 12/09 A2997 RMK AO2
                 RAB1456 SLP149 P0002 T01170094 =
2014-10-22 10:53 METAR KTHV 221453Z AUTO 35009G18KT 10SM OVC028 12/09 A2996 RMK AO2 RAE52 SLP148
                 P0002 60002 T01220094 51009 =
2014-10-22 10:18 METAR KTHV 221418Z AUTO 34010KT 10SM -RA OVC031 12/09 A2996 RMK AO2 P0001
                 T01220094 =
2014-10-22 10:09 METAR KTHV 221409Z AUTO 34008KT 6SM -RA BKN029 BKN035 OVC065 12/09 A2995 RMK AO2
                 P0001 T01220094 =
2014-10-22 09:53 METAR KTHV 221353Z AUTO 35010G18KT 9SM -RA SCT027 BKN034 OVC065 12/09 A2995 RMK
                 AO2 RAB45 SLP145 P0000 T01220089 =
2014-10-22 09:12 METAR KTHV 221312Z AUTO 35011G16KT 10SM OVC029 13/09 A2995 RMK AO2 T01280089 =
2014-10-22 08:53 METAR KTHV 221253Z AUTO 35010KT 10SM OVC031 12/09 A2994 RMK AO2 SLP142 T01220089
                 =
2014-10-22 07:53 METAR KTHV 221153Z AUTO 33007KT 10SM BKN033 BKN043 OVC085 12/09 A2993 RMK AO2
                 SLP138 60042 70047 T01170089 10117 20106 53010 =
2014-10-22 06:53 METAR KTHV 221053Z AUTO 34007KT 10SM BKN033 BKN041 OVC075 12/09 A2992 RMK AO2
                 SLP133 T01170094 =
2014-10-22 05:53 METAR KTHV 220953Z AUTO 31006KT 10SM OVC037 11/09 A2991 RMK AO2 RAE10 SLP129
                 P0001 T01110094 =

Support USWX by starting your Amazon purchase here.